Airfield :
LOGIN :

Register | Disclaimer

   EN    FR    IT 

 










Legend :    VFR   Marginal VFR   IFR   Intensive IFR   Very Intensive IFR
Visi :
Ceiling :
>= 8 km
>= 3000ft
5 to 8 km
1000 to 3000 ft
1500m to 5 km
500 to 1000 ft
800 to 1500m
200 to 500 ft
< 800m
< 200 ft
Symbols :   Thunderstorms  Fog  Heavy snow  Heavy precipitations  Wind > 20 kt
SIGMETs :     Misc.  Thunderstorms  Icing  Turbulence  Mountain Waves  Volcanic Ashes






- Airport Elevation : 74 ft
- IATA code : LRH


LFBH - La Rochelle Ile de Ré

CURRENT METAR :
  • 090630Z AUTO 21002KT 9999 FEW038 OVC110 05/03 Q1012 NOSIG

EXPIRED METARs :
  • 090600Z AUTO 25003KT 9999 FEW041 BKN047 BKN220 06/04 Q1012 NOSIG
  • 090530Z AUTO 19004KT CAVOK 04/03 Q1012 NOSIG
  • 090500Z AUTO 23001KT 9999 FEW039 SCT049 OVC230 05/03 Q1012 NOSIG
  • 090430Z AUTO 23004KT 9999 FEW043 SCT056 OVC230 05/03 Q1012 NOSIG
  • 090400Z AUTO 27005KT CAVOK 05/03 Q1012 NOSIG

TAF TAF LFBH
Valid from the 09 at 06:00 until the 10 at 06:00 UTC


090500Z 0906/1006 22005KT 9999 SCT030
BECMG 0910/0912 16010KT BKN030
BECMG 0912/0914 5000 -RA OVC015
TEMPO 0916/0921 2000 DZ OVC005
BECMG 0921/0923 27020G30KT 9999 NSW BKN025
TEMPO 1000/1006 30025G40KT 3000 SHRA BKN020TCU
ATIS : +33 5 46 00 13 92



MET'MAP, your aeronautical weather chart ! - Copyright ORBIFLY December 2007 - Disclaimer

ORBIFLY MET'MAP TEAM :

Programming & Development : Alexandra Zaïnal
Concept & original design : Baudouin d'Aumeries
Assistance for programming : Marc-Olivier Méhu
Technical & hardware support : Manuel Goepfert

Contact : metmap@orbifly.com




SOURCES & CREDITS :

   NOAA